Time;durP1;ratioP1;P1;durP2;ratioP2;P2;SDS_P1;SDS_P2;PMS_P1;PMS_P2;Temp;Humidity;BMP_temperature;BMP_pressure;BME280_temperature;BME280_humidity;BME280_pressure;Samples;Min_cycle;Max_cycle;Signal;HPM_P1;HPM_P2
2022/06/25 00:15:00;;;;;;;0.20;0.00;;;21.40;99.90;;;;;;21237412;28;20211;-71
2022/06/25 00:25:06;;;;;;;0.20;0.00;;;21.40;99.90;;;;;;21234720;28;20251;-71
2022/06/25 00:35:10;;;;;;;0.20;0.00;;;21.30;99.90;;;;;;21234173;28;20230;-71
2022/06/25 00:45:15;;;;;;;0.20;0.00;;;21.20;99.90;;;;;;21235519;28;20239;-71
2022/06/25 00:55:23;;;;;;;0.20;0.00;;;21.30;99.90;;;;;;21234505;28;20191;-70
2022/06/25 01:05:28;;;;;;;0.20;0.00;;;21.40;99.90;;;;;;21232187;28;20223;-71
2022/06/25 01:15:32;;;;;;;0.20;0.00;;;21.30;99.90;;;;;;21233041;28;20283;-71
2022/06/25 01:25:38;;;;;;;0.20;0.10;;;21.20;99.90;;;;;;21231082;28;20782;-71
2022/06/25 01:35:42;;;;;;;0.20;0.00;;;21.20;99.90;;;;;;21231347;28;20214;-71
2022/06/25 01:45:47;;;;;;;0.20;0.00;;;21.00;99.90;;;;;;21227380;28;20219;-71
2022/06/25 01:55:51;;;;;;;0.20;0.00;;;21.00;99.90;;;;;;21229913;28;20195;-71
2022/06/25 02:05:59;;;;;;;0.20;0.10;;;20.90;99.90;;;;;;21227334;28;20238;-71
2022/06/25 02:16:05;;;;;;;0.20;0.10;;;20.80;99.90;;;;;;21226138;28;20254;-70
2022/06/25 02:26:10;;;;;;;0.20;0.00;;;20.60;99.90;;;;;;21227409;28;20227;-70
2022/06/25 02:36:14;;;;;;;0.20;0.00;;;20.60;99.90;;;;;;21223749;28;20203;-70
2022/06/25 02:46:19;;;;;;;0.20;0.10;;;20.50;99.90;;;;;;21226334;28;20229;-70
2022/06/25 03:06:46;;;;;;;0.20;0.10;;;20.30;99.90;;;;;;21224325;28;20226;-70
2022/06/25 03:16:50;;;;;;;0.20;0.00;;;20.30;99.90;;;;;;21228760;28;20249;-71
2022/06/25 03:26:56;;;;;;;0.20;0.10;;;20.40;99.90;;;;;;21240935;28;20291;-70
2022/06/25 03:36:59;;;;;;;0.20;0.10;;;20.40;99.90;;;;;;21239413;28;20218;-71
2022/06/25 03:47:05;;;;;;;0.20;0.00;;;20.40;99.90;;;;;;21239340;28;20227;-70
2022/06/25 03:57:09;;;;;;;0.20;0.10;;;20.40;99.90;;;;;;21236728;28;20259;-70
2022/06/25 04:07:14;;;;;;;0.20;0.10;;;20.40;99.90;;;;;;21238449;28;20232;-70
2022/06/25 04:17:18;;;;;;;0.20;0.00;;;20.40;99.90;;;;;;21237295;28;20239;-70
2022/06/25 04:37:45;;;;;;;0.20;0.10;;;20.40;99.90;;;;;;21236382;28;20225;-69
2022/06/25 04:47:50;;;;;;;0.20;0.10;;;20.30;99.90;;;;;;21234407;28;20287;-70
2022/06/25 04:57:54;;;;;;;0.20;0.10;;;20.40;99.90;;;;;;21234887;28;20281;-70
2022/06/25 05:07:59;;;;;;;0.20;0.10;;;20.50;99.90;;;;;;21231857;28;20247;-69
2022/06/25 05:18:03;;;;;;;0.20;0.00;;;20.60;99.90;;;;;;21229824;28;20235;-70
2022/06/25 05:28:09;;;;;;;0.20;0.10;;;20.80;99.90;;;;;;21230908;28;20230;-71
2022/06/25 05:38:13;;;;;;;0.20;0.10;;;21.10;99.90;;;;;;21228544;28;20226;-71
2022/06/25 05:48:18;;;;;;;0.20;0.00;;;21.50;99.90;;;;;;21228774;28;20248;-70
2022/06/25 05:58:22;;;;;;;0.20;0.00;;;21.80;99.90;;;;;;21226573;28;20207;-69
2022/06/25 06:08:27;;;;;;;0.20;0.00;;;22.10;99.90;;;;;;21226530;28;20239;-70
2022/06/25 06:18:32;;;;;;;0.20;0.00;;;22.50;99.90;;;;;;21226374;28;20245;-70
2022/06/25 06:28:37;;;;;;;0.20;0.00;;;23.00;99.90;;;;;;21225256;28;20279;-71
2022/06/25 06:38:41;;;;;;;0.20;0.00;;;23.60;99.90;;;;;;21224494;28;20291;-71
2022/06/25 06:48:46;;;;;;;0.20;0.00;;;23.90;99.90;;;;;;21224765;28;20260;-70
2022/06/25 06:58:50;;;;;;;0.20;0.00;;;24.10;99.90;;;;;;21224212;28;20207;-71
2022/06/25 07:08:55;;;;;;;0.20;0.00;;;24.20;99.90;;;;;;21221881;28;20258;-71
2022/06/25 07:19:01;;;;;;;0.20;0.00;;;24.10;99.90;;;;;;21222079;28;20215;-71
2022/06/25 07:29:06;;;;;;;0.20;0.00;;;24.30;99.90;;;;;;21223007;28;20249;-71
2022/06/25 07:39:10;;;;;;;0.20;0.00;;;24.30;99.90;;;;;;21218952;28;20256;-72
2022/06/25 07:49:16;;;;;;;0.20;0.00;;;24.40;99.90;;;;;;21218597;28;20290;-71
2022/06/25 07:59:20;;;;;;;0.20;0.00;;;24.50;99.90;;;;;;21220535;28;20215;-71
2022/06/25 08:09:25;;;;;;;0.20;0.00;;;24.50;99.90;;;;;;21232589;28;20246;-70
2022/06/25 08:19:29;;;;;;;0.20;0.00;;;24.50;99.90;;;;;;21235212;28;20253;-71
2022/06/25 08:29:36;;;;;;;0.20;0.00;;;24.90;99.90;;;;;;21231384;28;20241;-71
2022/06/25 08:39:39;;;;;;;0.20;0.00;;;25.20;99.90;;;;;;21232956;28;20207;-70
2022/06/25 08:49:46;;;;;;;0.20;0.00;;;24.90;99.90;;;;;;21230132;28;20282;-70
2022/06/25 08:59:50;;;;;;;0.20;0.10;;;25.00;99.90;;;;;;21230979;28;20221;-69
2022/06/25 09:09:55;;;;;;;0.20;0.10;;;25.00;99.90;;;;;;21226134;28;20262;-72
2022/06/25 09:20:00;;;;;;;0.20;0.00;;;25.10;99.90;;;;;;21227940;27;20247;-71
2022/06/25 09:30:13;;;;;;;0.20;0.00;;;25.40;99.90;;;;;;21227574;28;20191;-70
2022/06/25 09:40:17;;;;;;;0.20;0.00;;;25.10;99.90;;;;;;21227334;28;20266;-70
2022/06/25 09:50:22;;;;;;;0.20;0.00;;;25.20;99.90;;;;;;21222155;28;20267;-72
2022/06/25 10:00:26;;;;;;;0.20;0.00;;;25.20;99.90;;;;;;21221590;28;20264;-71
2022/06/25 10:10:34;;;;;;;0.20;0.00;;;25.50;99.90;;;;;;21223360;28;20251;-72
2022/06/25 10:20:40;;;;;;;0.20;0.00;;;25.90;99.90;;;;;;21221480;28;20253;-72
2022/06/25 10:30:48;;;;;;;0.20;0.00;;;27.00;99.90;;;;;;21203334;28;20271;-73
2022/06/25 10:40:57;;;;;;;0.20;0.00;;;27.20;99.90;;;;;;21217564;28;20230;-70
2022/06/25 10:51:02;;;;;;;0.20;0.00;;;26.90;99.90;;;;;;21217849;28;20206;-71
2022/06/25 11:01:22;;;;;;;0.20;0.10;;;27.80;99.90;;;;;;21217508;28;20289;-72
2022/06/25 11:11:30;;;;;;;0.20;0.00;;;27.50;99.90;;;;;;21219766;28;20214;-70
2022/06/25 11:21:36;;;;;;;0.20;0.00;;;27.30;99.90;;;;;;21217789;28;20230;-73
2022/06/25 11:31:43;;;;;;;0.20;0.00;;;28.30;99.90;;;;;;21218903;28;20275;-70
2022/06/25 11:41:51;;;;;;;0.20;0.00;;;28.90;99.90;;;;;;21229108;28;20263;-72
2022/06/25 11:51:56;;;;;;;0.20;0.00;;;28.80;99.90;;;;;;21233041;28;20304;-72
2022/06/25 12:02:03;;;;;;;0.20;0.00;;;29.50;99.90;;;;;;21232290;28;20231;-71
2022/06/25 12:12:08;;;;;;;0.20;0.00;;;30.00;99.90;;;;;;21233353;28;20207;-73
2022/06/25 12:22:22;;;;;;;0.20;0.00;;;30.40;99.90;;;;;;21229126;28;20246;-72
2022/06/25 12:32:42;;;;;;;0.20;0.00;;;30.90;99.90;;;;;;21231247;28;20268;-72
2022/06/25 12:42:54;;;;;;;0.20;0.00;;;30.40;99.90;;;;;;21230659;28;20255;-71
2022/06/25 12:53:07;;;;;;;0.20;0.00;;;31.20;99.90;;;;;;21230280;28;20223;-71
2022/06/25 13:03:11;;;;;;;0.20;0.00;;;31.50;99.90;;;;;;21226186;28;20211;-71
2022/06/25 13:13:17;;;;;;;0.20;0.00;;;31.40;99.90;;;;;;21230669;28;20211;-72
2022/06/25 13:23:20;;;;;;;0.20;0.00;;;32.20;99.90;;;;;;21227270;28;20291;-71
2022/06/25 13:33:26;;;;;;;0.20;0.00;;;31.40;99.90;;;;;;21227497;28;20260;-70
2022/06/25 13:43:30;;;;;;;0.20;0.00;;;31.90;99.90;;;;;;21227167;28;20219;-72
2022/06/25 13:53:35;;;;;;;0.20;0.00;;;31.10;99.90;;;;;;21224221;28;20262;-72
2022/06/25 14:03:39;;;;;;;0.20;0.00;;;32.80;99.90;;;;;;21224165;28;20249;-68
2022/06/25 14:13:44;;;;;;;0.20;0.00;;;31.50;99.90;;;;;;21224142;28;20218;-71
2022/06/25 14:23:48;;;;;;;0.20;0.00;;;32.20;99.90;;;;;;21223443;28;20224;-71
2022/06/25 14:33:53;;;;;;;0.20;0.00;;;32.70;99.90;;;;;;21219332;28;20187;-72
2022/06/25 14:43:57;;;;;;;0.20;0.00;;;32.40;99.90;;;;;;21222570;28;20223;-72
2022/06/25 14:54:02;;;;;;;0.20;0.00;;;31.90;99.90;;;;;;21218101;28;20258;-71
2022/06/25 15:04:06;;;;;;;0.20;0.00;;;32.30;99.90;;;;;;21218543;28;20215;-71
2022/06/25 15:14:11;;;;;;;0.20;0.00;;;32.50;99.90;;;;;;21226142;28;20195;-70
2022/06/25 15:24:15;;;;;;;0.20;0.00;;;33.10;99.90;;;;;;21238439;28;20235;-71
2022/06/25 15:34:20;;;;;;;0.20;0.00;;;33.30;99.90;;;;;;21236423;28;20218;-72
2022/06/25 15:44:24;;;;;;;0.20;0.00;;;33.30;99.90;;;;;;21234708;28;20239;-71
2022/06/25 15:54:29;;;;;;;0.20;0.00;;;33.20;99.90;;;;;;21233923;28;20210;-71
2022/06/25 16:04:34;;;;;;;0.20;0.00;;;33.50;99.90;;;;;;21235432;28;20219;-72
2022/06/25 16:14:39;;;;;;;0.20;0.00;;;32.40;99.90;;;;;;21234444;28;20211;-71
2022/06/25 16:24:43;;;;;;;0.20;0.00;;;29.80;99.90;;;;;;21232319;28;20299;-72
2022/06/25 16:34:48;;;;;;;0.20;0.00;;;31.70;99.90;;;;;;21232422;28;20195;-71
2022/06/25 16:44:53;;;;;;;0.20;0.00;;;32.60;99.90;;;;;;21229395;28;20268;-71
2022/06/25 16:54:58;;;;;;;0.20;0.00;;;31.90;99.90;;;;;;21229848;28;20195;-71
2022/06/25 17:05:01;;;;;;;0.20;0.00;;;32.20;99.90;;;;;;21225166;28;20289;-71
2022/06/25 17:15:08;;;;;;;0.20;0.00;;;33.10;99.90;;;;;;21228492;28;20215;-71
2022/06/25 17:25:12;;;;;;;0.20;0.00;;;32.90;99.90;;;;;;21226627;28;20249;-71
2022/06/25 17:35:17;;;;;;;0.20;0.00;;;32.80;99.90;;;;;;21222893;28;20187;-75
2022/06/25 17:45:21;;;;;;;0.20;0.00;;;31.80;99.90;;;;;;21205252;28;20218;-71
2022/06/25 17:55:27;;;;;;;0.20;0.00;;;32.20;99.90;;;;;;21223683;28;20215;-71
2022/06/25 18:05:31;;;;;;;0.20;0.00;;;32.10;99.90;;;;;;21221015;28;20234;-71
2022/06/25 18:15:36;;;;;;;0.20;0.00;;;31.00;99.90;;;;;;21220424;28;20227;-69
2022/06/25 18:25:40;;;;;;;0.20;0.00;;;30.90;99.90;;;;;;21222625;28;20207;-71
2022/06/25 18:35:45;;;;;;;0.20;0.00;;;30.00;99.90;;;;;;21204410;28;20217;-72
2022/06/25 18:45:49;;;;;;;0.20;0.00;;;30.00;99.90;;;;;;21219231;28;20242;-72
2022/06/25 18:55:54;;;;;;;0.20;0.00;;;29.40;99.90;;;;;;21216660;28;20256;-72
2022/06/25 19:05:58;;;;;;;0.20;0.00;;;28.10;99.90;;;;;;21221109;28;20231;-71
2022/06/25 19:16:03;;;;;;;0.20;0.00;;;27.00;99.90;;;;;;21218749;28;20273;-70
2022/06/25 19:26:07;;;;;;;0.20;0.00;;;26.50;99.90;;;;;;21220835;28;20246;-69
2022/06/25 19:36:12;;;;;;;0.20;0.00;;;26.10;99.90;;;;;;21219338;28;20196;-71
2022/06/25 19:46:16;;;;;;;0.20;0.10;;;25.90;99.90;;;;;;21218441;28;20294;-71
2022/06/25 19:56:21;;;;;;;0.20;0.10;;;25.80;99.90;;;;;;21218519;28;20192;-71
2022/06/25 20:06:25;;;;;;;0.20;0.00;;;25.80;99.90;;;;;;21232989;28;20268;-70
2022/06/25 20:16:31;;;;;;;0.20;0.00;;;25.50;99.90;;;;;;21233075;28;20270;-71
2022/06/25 20:26:35;;;;;;;0.20;0.00;;;25.50;99.90;;;;;;21234335;28;20932;-71
2022/06/25 20:36:40;;;;;;;0.20;0.00;;;25.30;99.90;;;;;;21232097;28;20199;-71
2022/06/25 20:46:58;;;;;;;0.20;0.10;;;25.10;99.90;;;;;;21227902;28;20231;-71
2022/06/25 20:57:03;;;;;;;0.20;0.00;;;24.60;99.90;;;;;;21232402;28;20195;-70
2022/06/25 21:17:30;;;;;;;0.20;0.00;;;24.20;99.90;;;;;;21228907;28;20227;-72
2022/06/25 21:27:34;;;;;;;0.20;0.00;;;24.00;99.90;;;;;;21229438;28;20302;-71
2022/06/25 21:37:40;;;;;;;0.20;0.00;;;23.90;99.90;;;;;;21228527;28;20187;-71
2022/06/25 21:47:44;;;;;;;0.20;0.00;;;23.60;99.90;;;;;;21225826;28;20243;-71
2022/06/25 21:57:49;;;;;;;0.20;0.00;;;23.50;99.90;;;;;;21226106;28;20204;-70
2022/06/25 22:07:54;;;;;;;0.20;0.00;;;23.30;99.90;;;;;;21224532;28;20278;-72
2022/06/25 22:18:00;;;;;;;0.20;0.00;;;23.10;99.90;;;;;;21223561;28;20216;-70
2022/06/25 22:28:03;;;;;;;0.20;0.00;;;23.20;99.90;;;;;;21222341;28;20249;-72
2022/06/25 22:38:09;;;;;;;0.20;0.10;;;23.00;99.90;;;;;;21224548;28;20215;-70
2022/06/25 22:48:14;;;;;;;0.20;0.10;;;22.90;99.90;;;;;;21222588;28;20241;-71
2022/06/25 22:58:19;;;;;;;0.20;0.00;;;22.80;99.90;;;;;;21222937;28;20191;-70
2022/06/25 23:08:23;;;;;;;0.20;0.00;;;22.80;99.90;;;;;;21222150;28;20233;-70
2022/06/25 23:18:28;;;;;;;0.20;0.00;;;23.00;99.90;;;;;;21222920;28;20242;-71
2022/06/25 23:28:32;;;;;;;0.20;0.00;;;23.10;99.90;;;;;;21220862;28;20254;-71
2022/06/25 23:38:38;;;;;;;0.20;0.00;;;23.00;99.90;;;;;;21235332;28;20226;-70
2022/06/25 23:48:42;;;;;;;0.20;0.00;;;22.80;99.90;;;;;;21237412;28;20245;-70
2022/06/25 23:58:47;;;;;;;0.20;0.00;;;22.70;99.90;;;;;;21237406;28;20211;-71
